Disclaimer

Please do not use the information listed here in-flight or in-navigation, as they are not provided to us by the airports but are provided by volunteers, so they might be outdated.

Search


Regions


Airport information page

Radio informations:
Tower (TWR) - 120.1 MHz

Airport informations:
Latitude: 63° 43' 16.22" N
Longitude: 023° 08' 35.27" E
Elevation: 84 feet - 26 meters
Operating hours: N/A
Operating agency: Civil government, landing fees and diplomatic clearance may be required
Timezone: UTC+2(+3DT) - Last Sunday in March to last Sunday in October
Fuel: 100/130 MIL Spec, low lead, aviation gasoline (BLUE)

Runway information:
01/19 - 8202 x 197 feet< - >2500 x 60 meters
11/29 - 2297 x 66 feet< - >700 x 20 meters

Recent METARs:
EFKK 172020Z AUTO 35016KT CAVOK 06/01 Q1033
EFKK 172050Z AUTO 35018KT 320V020 CAVOK 06/01 Q1034
EFKK 172120Z AUTO 35015G26KT 9999 BKN027 06/02 Q1034

Airport on the map: